Time;durP1;ratioP1;P1;durP2;ratioP2;P2;SDS_P1;SDS_P2;PMS_P1;PMS_P2;Temp;Humidity;BMP_temperature;BMP_pressure;BME280_temperature;BME280_humidity;BME280_pressure;Samples;Min_cycle;Max_cycle;Signal;HPM_P1;HPM_P2
2022/07/12 00:02:08;;;;;;;2.90;1.00;;;;;;;14.86;100.00;145907.94;1717933;83;21534;-58
2022/07/12 00:04:35;;;;;;;2.90;1.37;;;;;;;14.88;100.00;145912.97;1760170;81;21060;-57
2022/07/12 00:07:03;;;;;;;1.67;1.02;;;;;;;14.90;100.00;145917.97;1754343;81;21032;-57
2022/07/12 00:09:30;;;;;;;3.70;1.55;;;;;;;14.91;100.00;145920.52;1776013;80;21474;-57
2022/07/12 00:11:57;;;;;;;4.17;1.12;;;;;;;14.90;100.00;145917.97;1708512;84;21507;-57
2022/07/12 00:14:25;;;;;;;5.50;1.70;;;;;;;14.89;100.00;145914.22;1747399;81;21024;-57
2022/07/12 00:16:52;;;;;;;2.17;1.00;;;;;;;14.87;100.00;145910.44;1747532;82;21553;-57
2022/07/12 00:19:19;;;;;;;2.27;1.12;;;;;;;14.88;100.00;145912.97;1747689;82;21506;-57
2022/07/12 00:21:46;;;;;;;2.58;1.10;;;;;;;14.92;100.00;145921.77;1747574;82;21509;-57
2022/07/12 00:24:13;;;;;;;3.55;1.30;;;;;;;14.94;99.90;145928.06;1751619;81;21502;-57
2022/07/12 00:26:40;;;;;;;5.40;1.60;;;;;;;14.94;99.90;145928.06;1704533;84;21052;-57
2022/07/12 00:29:08;;;;;;;3.60;1.30;;;;;;;14.94;99.71;145926.81;1704413;84;21100;-57
2022/07/12 00:31:36;;;;;;;4.87;1.22;;;;;;;14.94;99.71;145926.81;1773189;80;21028;-57
2022/07/12 00:34:02;;;;;;;4.65;1.00;;;;;;;14.91;99.56;145920.52;1704503;84;21089;-57
2022/07/12 00:36:29;;;;;;;4.33;1.37;;;;;;;14.89;99.53;145915.47;1773327;81;21044;-57
2022/07/12 00:38:56;;;;;;;3.17;1.35;;;;;;;14.90;99.53;145916.72;1704450;84;21045;-58
2022/07/12 00:41:23;;;;;;;2.87;1.32;;;;;;;14.89;99.85;145915.47;1704757;84;20994;-58
2022/07/12 00:43:50;;;;;;;3.35;1.15;;;;;;;14.89;99.85;145915.47;1773101;80;21083;-58
2022/07/12 00:46:21;;;;;;;3.95;1.05;;;;;;;14.88;99.62;145912.97;1773341;81;20990;-57
2022/07/12 00:48:48;;;;;;;2.67;1.00;;;;;;;14.87;99.76;145910.44;1704808;84;21045;-58
2022/07/12 00:51:17;;;;;;;3.37;1.10;;;;;;;14.86;99.87;145907.94;1706901;84;21057;-57
2022/07/12 00:53:45;;;;;;;3.47;1.35;;;;;;;14.84;100.00;145902.89;1776514;81;21013;-57
2022/07/12 00:56:14;;;;;;;2.62;1.00;;;;;;;14.84;100.00;145902.89;1776050;80;21028;-57
2022/07/12 00:58:43;;;;;;;3.72;1.07;;;;;;;14.85;99.93;145904.14;1776405;80;21005;-57
2022/07/12 01:01:11;;;;;;;5.25;1.10;;;;;;;14.84;99.91;145902.89;1783670;80;21004;-57
2022/07/12 01:03:38;;;;;;;3.85;1.60;;;;;;;14.82;99.98;145896.59;1783524;80;21068;-57
2022/07/12 01:06:08;;;;;;;5.17;1.00;;;;;;;14.79;99.98;145889.06;1783485;80;21028;-57
2022/07/12 01:08:35;;;;;;;2.10;1.00;;;;;;;14.70;100.00;145868.88;1715384;84;21084;-57
2022/07/12 01:11:03;;;;;;;2.33;1.10;;;;;;;14.70;100.00;145868.88;1725880;82;21016;-57
2022/07/12 01:13:30;;;;;;;3.35;0.93;;;;;;;14.72;100.00;145872.69;1725410;82;21581;-58
2022/07/12 01:15:57;;;;;;;3.55;1.00;;;;;;;14.72;100.00;145872.69;1727731;80;21008;-57
2022/07/12 01:18:27;;;;;;;3.33;1.20;;;;;;;14.70;100.00;145868.88;1728490;80;21010;-57
2022/07/12 01:20:54;;;;;;;3.15;1.50;;;;;;;14.65;100.00;145856.30;1722772;83;21082;-57
2022/07/12 01:23:23;;;;;;;2.87;1.00;;;;;;;14.61;100.00;145845.02;1724848;82;21536;-58
2022/07/12 01:25:50;;;;;;;3.00;1.10;;;;;;;14.61;100.00;145845.02;1723002;82;21062;-57
2022/07/12 01:28:17;;;;;;;2.05;0.90;;;;;;;14.61;100.00;145845.02;1726319;80;21106;-57
2022/07/12 01:30:44;;;;;;;3.92;1.17;;;;;;;14.61;100.00;145845.02;1725523;82;21065;-58
2022/07/12 01:33:11;;;;;;;5.42;1.07;;;;;;;14.59;100.00;145839.97;1725443;82;21505;-57
2022/07/12 01:35:39;;;;;;;3.40;1.00;;;;;;;14.59;100.00;145839.97;1725572;82;21004;-57
2022/07/12 01:38:06;;;;;;;6.17;1.17;;;;;;;14.57;100.00;145834.94;1754779;80;21024;-57
2022/07/12 01:40:35;;;;;;;2.80;1.32;;;;;;;14.56;100.00;145832.44;1716994;83;21091;-57
2022/07/12 01:43:02;;;;;;;2.35;1.05;;;;;;;14.54;100.00;145829.89;1716866;84;21060;-58
2022/07/12 01:45:30;;;;;;;3.47;1.30;;;;;;;14.46;100.00;145809.72;1716943;83;21530;-57
2022/07/12 01:47:58;;;;;;;3.60;1.47;;;;;;;14.44;100.00;145803.44;1759094;80;20984;-58
2022/07/12 01:50:26;;;;;;;2.35;1.25;;;;;;;14.39;100.00;145790.84;1744270;80;21025;-57
2022/07/12 01:52:53;;;;;;;4.30;1.30;;;;;;;14.35;100.00;145782.06;1770463;81;21013;-57
2022/07/12 01:55:20;;;;;;;2.58;1.10;;;;;;;14.27;100.00;145763.20;1739638;81;21158;-57
2022/07/12 01:57:47;;;;;;;4.60;1.70;;;;;;;14.19;100.00;145741.78;1729250;81;21040;-57
2022/07/12 02:00:14;;;;;;;3.30;1.35;;;;;;;14.10;100.00;145721.67;1752130;81;21087;-57
2022/07/12 02:02:42;;;;;;;9.58;1.67;;;;;;;14.04;100.00;145706.61;1665038;86;21055;-56
2022/07/12 02:05:10;;;;;;;5.25;1.45;;;;;;;14.02;100.00;145700.31;1760491;80;21044;-57
2022/07/12 02:07:39;;;;;;;3.83;1.40;;;;;;;14.00;100.00;145695.28;1760717;80;21542;-57
2022/07/12 02:10:08;;;;;;;4.58;1.40;;;;;;;14.01;100.00;145699.02;1760545;81;21040;-57
2022/07/12 02:12:36;;;;;;;2.72;1.20;;;;;;;14.04;100.00;145705.31;1760968;80;21048;-57
2022/07/12 02:15:07;;;;;;;3.42;1.55;;;;;;;14.06;100.00;145710.34;1759858;80;21032;-58
